Clipper 3 — ZMT3984 — position and weather

sailwx.info

Track history (hours):
 
Tides and Currents Weather Stations Pressure Air Temp Water Temp Dewpoint Dewpoint Depression Visibility Wind Speed Wind Dir Waves Ship Positions

Clipper 3

Last reported at 2015-Apr-01 01:16 UTC. Time now 2015-Apr-01 03:09 UTC.
Position S 36°51' E 174°54'.

Length 14 m; draft 1 m.

Type: High speed craft. MMSI: 512000741.

Date/timePositionNaut miles runAvg speedWind from/ knotsBaromVisibWave heightAir tempDewpointWater temp
2015-Apr-01 01:16S 36°51' E 174°54'0 0.1
2015-Mar-31 23:17S 36°51' E 174°54'0 0.0
2015-Mar-31 20:05S 36°51' E 174°54'4 8.0
2015-Mar-31 19:33S 36°50' E 174°49'2 2.1
2015-Mar-31 18:32S 36°50' E 174°46'6 0.5
2015-Mar-31 05:16S 36°51' E 174°54'6 3.8
2015-Mar-31 03:33S 36°51' E 174°46'6 2.8
2015-Mar-31 01:16S 36°51' E 174°54'0 0.1
2015-Mar-30 23:15S 36°51' E 174°54'0 0.0
2015-Mar-30 20:04S 36°51' E 174°54'3 6.8
2015-Mar-30 19:33S 36°50' E 174°49'2 2.2
2015-Mar-30 18:33S 36°50' E 174°46'6 0.4
2015-Mar-30 05:16S 36°51' E 174°54'6 3.7
2015-Mar-30 03:33S 36°51' E 174°46'6 2.6
2015-Mar-30 01:16S 36°51' E 174°54'1 0.3
2015-Mar-29 23:13S 36°50' E 174°53'0 0.1
2015-Mar-29 20:04S 36°51' E 174°53'3 6.5
2015-Mar-29 19:33S 36°50' E 174°49'3 2.6
2015-Mar-29 18:32S 36°51' E 174°46'0 0.0
2015-Mar-29 03:33S 36°51' E 174°46'0 0.0
2015-Mar-29 02:33S 36°51' E 174°46'1110.9
2015-Mar-29 01:33S 36°47' E 174°59'1110.8
2015-Mar-29 00:33S 36°51' E 174°46'8 7.9
2015-Mar-28 23:33S 36°48' E 174°55'8 4.0
2015-Mar-28 21:33S 36°51' E 174°46'0 0.0
2015-Mar-28 02:33S 36°51' E 174°46'1110.6
2015-Mar-28 01:33S 36°47' E 174°58'1110.6
2015-Mar-28 00:33S 36°51' E 174°46'8 7.7
2015-Mar-27 23:33S 36°48' E 174°55'8 3.9
2015-Mar-27 21:33S 36°51' E 174°46'1110.6
2015-Mar-27 20:33S 36°48' E 174°59'5 0.3
2015-Mar-27 05:20S 36°51' E 174°54'6 3.6
2015-Mar-27 03:33S 36°51' E 174°46'6 2.8
2015-Mar-27 01:17S 36°51' E 174°54'1 1.8
2015-Mar-27 00:32S 36°51' E 174°55'1 1.1
2015-Mar-26 23:17S 36°51' E 174°54'0 0.0
2015-Mar-26 20:13S 36°51' E 174°54'0 0.5
2015-Mar-26 19:33S 36°51' E 174°54'6 6.0
2015-Mar-26 18:33S 36°51' E 174°46'6 0.5
2015-Mar-26 05:17S 36°51' E 174°54'6 3.8
2015-Mar-26 03:33S 36°51' E 174°46'6 2.6
2015-Mar-26 01:19S 36°51' E 174°53'0 0.2
2015-Mar-25 23:17S 36°50' E 174°54'0 0.1
2015-Mar-25 20:05S 36°51' E 174°53'3 6.3
2015-Mar-25 19:34S 36°50' E 174°49'3 2.1
2015-Mar-25 18:18S 36°50' E 174°46'6 0.5
2015-Mar-25 05:17S 36°51' E 174°54'6 3.8
2015-Mar-25 03:33S 36°51' E 174°46'6 2.6
2015-Mar-25 01:15S 36°51' E 174°53'1 1.3
2015-Mar-25 00:33S 36°51' E 174°55'1 0.4
2015-Mar-24 23:16S 36°51' E 174°54'4 1.1
2015-Mar-24 19:33S 36°50' E 174°49'2 1.9
2015-Mar-24 18:33S 36°50' E 174°46'6 0.5
2015-Mar-24 05:16S 36°51' E 174°54'7 3.8
2015-Mar-24 03:33S 36°51' E 174°46'6 2.9
2015-Mar-24 01:19S 36°51' E 174°54'0 0.0
2015-Mar-23 23:18S 36°51' E 174°54'4 1.1
2015-Mar-23 19:34S 36°50' E 174°49'2 1.9
2015-Mar-23 18:33S 36°50' E 174°47'5 0.4
2015-Mar-23 05:16S 36°51' E 174°53'6 3.4
2015-Mar-23 03:33S 36°51' E 174°46'6 1.5
2015-Mar-22 23:16S 36°51' E 174°54'0 0.0
2015-Mar-22 20:07S 36°51' E 174°54'6 4.0
2015-Mar-22 18:33S 36°50' E 174°46'10 0.7
2015-Mar-22 04:33S 36°47' E 174°59'1110.8
2015-Mar-22 03:33S 36°51' E 174°46'0 0.0
2015-Mar-22 02:33S 36°51' E 174°46'  
Track history (hours):
 
Tides and Currents Weather Stations Pressure Air Temp Water Temp Dewpoint Dewpoint Depression Visibility Wind Speed Wind Dir Waves Ship Positions

Clipper 3

Last reported at 2015-Apr-01 01:16 UTC. Time now 2015-Apr-01 03:09 UTC.
Position S 36°51' E 174°54'.

Length 14 m; draft 1 m.

Type: High speed craft. MMSI: 512000741.

Date/timePositionNaut miles runAvg speedWind from/ knotsBaromVisibWave heightAir tempDewpointWater temp
2015-Apr-01 01:16S 36°51' E 174°54'0 0.1
2015-Mar-31 23:17S 36°51' E 174°54'0 0.0
2015-Mar-31 20:05S 36°51' E 174°54'4 8.0
2015-Mar-31 19:33S 36°50' E 174°49'2 2.1
2015-Mar-31 18:32S 36°50' E 174°46'6 0.5
2015-Mar-31 05:16S 36°51' E 174°54'6 3.8
2015-Mar-31 03:33S 36°51' E 174°46'6 2.8
2015-Mar-31 01:16S 36°51' E 174°54'0 0.1
2015-Mar-30 23:15S 36°51' E 174°54'0 0.0
2015-Mar-30 20:04S 36°51' E 174°54'3 6.8
2015-Mar-30 19:33S 36°50' E 174°49'2 2.2
2015-Mar-30 18:33S 36°50' E 174°46'6 0.4
2015-Mar-30 05:16S 36°51' E 174°54'6 3.7
2015-Mar-30 03:33S 36°51' E 174°46'6 2.6
2015-Mar-30 01:16S 36°51' E 174°54'1 0.3
2015-Mar-29 23:13S 36°50' E 174°53'0 0.1
2015-Mar-29 20:04S 36°51' E 174°53'3 6.5
2015-Mar-29 19:33S 36°50' E 174°49'3 2.6
2015-Mar-29 18:32S 36°51' E 174°46'0 0.0
2015-Mar-29 03:33S 36°51' E 174°46'0 0.0
2015-Mar-29 02:33S 36°51' E 174°46'1110.9
2015-Mar-29 01:33S 36°47' E 174°59'1110.8
2015-Mar-29 00:33S 36°51' E 174°46'8 7.9
2015-Mar-28 23:33S 36°48' E 174°55'8 4.0
2015-Mar-28 21:33S 36°51' E 174°46'0 0.0
2015-Mar-28 02:33S 36°51' E 174°46'1110.6
2015-Mar-28 01:33S 36°47' E 174°58'1110.6
2015-Mar-28 00:33S 36°51' E 174°46'8 7.7
2015-Mar-27 23:33S 36°48' E 174°55'8 3.9
2015-Mar-27 21:33S 36°51' E 174°46'1110.6
2015-Mar-27 20:33S 36°48' E 174°59'5 0.3
2015-Mar-27 05:20S 36°51' E 174°54'6 3.6
2015-Mar-27 03:33S 36°51' E 174°46'6 2.8
2015-Mar-27 01:17S 36°51' E 174°54'1 1.8
2015-Mar-27 00:32S 36°51' E 174°55'1 1.1
2015-Mar-26 23:17S 36°51' E 174°54'0 0.0
2015-Mar-26 20:13S 36°51' E 174°54'0 0.5
2015-Mar-26 19:33S 36°51' E 174°54'6 6.0
2015-Mar-26 18:33S 36°51' E 174°46'6 0.5
2015-Mar-26 05:17S 36°51' E 174°54'6 3.8
2015-Mar-26 03:33S 36°51' E 174°46'6 2.6
2015-Mar-26 01:19S 36°51' E 174°53'0 0.2
2015-Mar-25 23:17S 36°50' E 174°54'0 0.1
2015-Mar-25 20:05S 36°51' E 174°53'3 6.3
2015-Mar-25 19:34S 36°50' E 174°49'3 2.1
2015-Mar-25 18:18S 36°50' E 174°46'6 0.5
2015-Mar-25 05:17S 36°51' E 174°54'6 3.8
2015-Mar-25 03:33S 36°51' E 174°46'6 2.6
2015-Mar-25 01:15S 36°51' E 174°53'1 1.3
2015-Mar-25 00:33S 36°51' E 174°55'1 0.4
2015-Mar-24 23:16S 36°51' E 174°54'4 1.1
2015-Mar-24 19:33S 36°50' E 174°49'2 1.9
2015-Mar-24 18:33S 36°50' E 174°46'6 0.5
2015-Mar-24 05:16S 36°51' E 174°54'7 3.8
2015-Mar-24 03:33S 36°51' E 174°46'6 2.9
2015-Mar-24 01:19S 36°51' E 174°54'0 0.0
2015-Mar-23 23:18S 36°51' E 174°54'4 1.1
2015-Mar-23 19:34S 36°50' E 174°49'2 1.9
2015-Mar-23 18:33S 36°50' E 174°47'5 0.4
2015-Mar-23 05:16S 36°51' E 174°53'6 3.4
2015-Mar-23 03:33S 36°51' E 174°46'6 1.5
2015-Mar-22 23:16S 36°51' E 174°54'0 0.0
2015-Mar-22 20:07S 36°51' E 174°54'6 4.0
2015-Mar-22 18:33S 36°50' E 174°46'10 0.7
2015-Mar-22 04:33S 36°47' E 174°59'1110.8
2015-Mar-22 03:33S 36°51' E 174°46'0 0.0
2015-Mar-22 02:33S 36°51' E 174°46'  

Dump ship's entire track history